createdAt,value
2023-04-18T00:00:49.463Z,80.39
2023-04-18T00:03:17.026Z,80.19
2023-04-18T00:05:48.054Z,80.24
2023-04-18T00:08:15.635Z,80.20
2023-04-18T00:10:44.293Z,80.44
2023-04-18T00:13:12.220Z,80.39
2023-04-18T00:15:39.752Z,80.21
2023-04-18T00:18:07.005Z,80.28
2023-04-18T00:20:34.387Z,80.29
2023-04-18T00:23:01.974Z,80.53
2023-04-18T00:25:29.216Z,80.61
2023-04-18T00:27:58.404Z,80.74
2023-04-18T00:30:25.565Z,80.47
2023-04-18T00:32:56.093Z,80.74
2023-04-18T00:35:23.638Z,80.93
2023-04-18T00:37:51.221Z,81.41
2023-04-18T00:40:19.088Z,81.25
2023-04-18T00:42:46.322Z,81.32
2023-04-18T00:45:15.074Z,81.67
2023-04-18T00:47:42.318Z,81.44
2023-04-18T00:50:11.050Z,81.54
2023-04-18T00:52:38.318Z,81.67
2023-04-18T00:55:07.932Z,81.78
2023-04-18T00:57:36.160Z,81.93
2023-04-18T01:00:10.075Z,81.97
2023-04-18T01:02:39.877Z,81.89
2023-04-18T01:05:08.787Z,82.10
2023-04-18T01:07:41.788Z,82.37
2023-04-18T01:10:10.989Z,82.41
2023-04-18T01:12:38.169Z,82.39
2023-04-18T01:15:06.771Z,82.26
2023-04-18T01:17:36.939Z,82.31
2023-04-18T01:20:06.962Z,82.40
2023-04-18T01:22:34.481Z,82.33
2023-04-18T01:25:07.571Z,82.22
2023-04-18T01:27:34.964Z,82.28
2023-04-18T01:30:02.371Z,82.26
2023-04-18T01:32:29.789Z,82.35
2023-04-18T01:34:57.120Z,82.67
2023-04-18T01:37:24.296Z,82.56
2023-04-18T01:39:51.571Z,82.62
2023-04-18T01:42:20.304Z,82.64
2023-04-18T01:44:47.509Z,82.65
2023-04-18T01:47:14.740Z,82.93
2023-04-18T01:49:46.734Z,82.98
2023-04-18T01:52:14.475Z,82.93
2023-04-18T01:54:41.786Z,82.72
2023-04-18T01:57:09.012Z,82.88
2023-04-18T01:59:38.336Z,82.75
2023-04-18T02:02:05.824Z,82.65
2023-04-18T02:04:33.182Z,82.89
2023-04-18T02:07:00.955Z,83.01
2023-04-18T02:09:28.328Z,83.10
2023-04-18T02:11:59.358Z,83.24
2023-04-18T02:14:29.328Z,82.98
2023-04-18T02:16:58.136Z,83.12
2023-04-18T02:19:25.590Z,83.46
2023-04-18T02:21:53.202Z,83.25
2023-04-18T02:24:20.639Z,83.29
2023-04-18T02:26:47.910Z,83.13
2023-04-18T02:29:15.655Z,83.19
2023-04-18T02:31:43.229Z,83.14
2023-04-18T02:34:12.090Z,83.31
2023-04-18T02:36:39.659Z,83.76
2023-04-18T02:39:07.000Z,83.16
2023-04-18T02:41:37.677Z,83.42
2023-04-18T02:44:04.968Z,83.29
2023-04-18T02:46:32.239Z,83.61
2023-04-18T02:48:59.574Z,83.49
2023-04-18T02:51:28.290Z,83.42
2023-04-18T02:53:56.381Z,83.67
2023-04-18T02:56:23.679Z,83.47
2023-04-18T02:58:51.011Z,83.33
2023-04-18T03:01:18.830Z,83.73
2023-04-18T03:03:46.506Z,83.49
2023-04-18T03:06:13.718Z,83.52
2023-04-18T03:08:42.553Z,83.67
2023-04-18T03:11:09.898Z,83.71
2023-04-18T03:13:37.131Z,83.56
2023-04-18T03:16:04.970Z,83.27
2023-04-18T03:18:32.164Z,83.60
2023-04-18T03:20:59.617Z,83.83
2023-04-18T03:23:26.827Z,83.63
2023-04-18T03:25:55.715Z,83.77
2023-04-18T03:28:23.069Z,83.79
2023-04-18T03:30:50.978Z,84.03
2023-04-18T03:33:18.778Z,84.07
2023-04-18T03:35:45.949Z,83.86
2023-04-18T03:38:13.293Z,83.79
2023-04-18T03:40:40.438Z,83.94
2023-04-18T03:43:09.296Z,84.03
2023-04-18T03:45:36.558Z,84.03
2023-04-18T03:48:04.296Z,84.10
2023-04-18T03:50:31.659Z,83.93
2023-04-18T03:52:58.992Z,84.30
2023-04-18T03:55:26.536Z,84.29
2023-04-18T03:57:53.752Z,84.36
2023-04-18T04:00:22.565Z,84.63
2023-04-18T04:02:50.023Z,84.89
2023-04-18T04:05:17.569Z,84.85
2023-04-18T04:07:44.870Z,84.95
2023-04-18T04:10:12.312Z,84.91
2023-04-18T04:12:39.549Z,84.87
2023-04-18T04:15:07.667Z,85.02
2023-04-18T04:17:36.394Z,85.06
2023-04-18T04:20:04.128Z,84.77
2023-04-18T04:22:32.834Z,84.96
2023-04-18T04:25:01.166Z,85.06
2023-04-18T04:27:28.483Z,85.11
2023-04-18T04:29:56.620Z,85.19
2023-04-18T04:32:25.354Z,85.16
2023-04-18T04:34:54.138Z,85.20
2023-04-18T04:37:21.325Z,85.39
2023-04-18T04:39:48.649Z,85.24
2023-04-18T04:42:16.172Z,85.24
2023-04-18T04:44:43.994Z,85.21
2023-04-18T04:47:11.270Z,85.36
2023-04-18T04:49:38.545Z,85.30
2023-04-18T04:52:07.117Z,85.45
2023-04-18T04:54:41.457Z,85.49
2023-04-18T04:57:08.718Z,85.64
2023-04-18T04:59:36.333Z,85.54
2023-04-18T05:02:03.720Z,85.30
2023-04-18T05:04:31.201Z,85.53
2023-04-18T05:06:58.856Z,86.23
2023-04-18T05:09:27.632Z,86.45
2023-04-18T05:11:54.954Z,86.71
2023-04-18T05:14:22.209Z,87.04
2023-04-18T05:16:49.732Z,86.46
2023-04-18T05:19:17.137Z,86.60
2023-04-18T05:21:44.487Z,86.49
2023-04-18T05:24:12.108Z,86.33
2023-04-18T05:26:41.747Z,86.21
2023-04-18T05:29:09.033Z,86.19
2023-04-18T05:31:42.663Z,85.89
2023-04-18T05:34:10.105Z,85.92
2023-04-18T05:36:37.547Z,86.02
2023-04-18T05:39:04.812Z,85.65
2023-04-18T05:41:32.271Z,85.95
2023-04-18T05:44:05.216Z,85.62
2023-04-18T05:46:33.286Z,85.54
2023-04-18T05:49:00.806Z,85.42
2023-04-18T05:51:28.687Z,85.42
2023-04-18T05:53:56.257Z,85.54
2023-04-18T05:56:23.722Z,85.25
2023-04-18T05:58:51.734Z,85.27
2023-04-18T06:01:21.724Z,84.93
2023-04-18T06:03:49.605Z,85.28
2023-04-18T06:06:17.239Z,85.16
2023-04-18T06:08:44.440Z,85.28
2023-04-18T06:11:11.760Z,85.28
2023-04-18T06:13:39.114Z,85.29
2023-04-18T06:16:06.816Z,85.26
2023-04-18T06:18:35.762Z,85.21
2023-04-18T06:21:30.020Z,85.13
2023-04-18T06:23:57.528Z,85.39
2023-04-18T06:26:24.829Z,85.13
2023-04-18T06:28:52.156Z,86.30
2023-04-18T06:31:19.485Z,84.36
2023-04-18T06:33:56.016Z,84.25
2023-04-18T06:36:24.852Z,84.21
2023-04-18T06:38:54.146Z,84.61
2023-04-18T06:41:21.443Z,84.52
2023-04-18T06:44:02.238Z,84.53
2023-04-18T06:46:30.995Z,84.50
2023-04-18T06:49:02.072Z,84.40
2023-04-18T06:51:35.115Z,83.98
2023-04-18T06:54:02.382Z,84.43
2023-04-18T06:56:30.058Z,84.57
2023-04-18T06:58:57.412Z,84.46
2023-04-18T07:01:25.871Z,84.74
2023-04-18T07:03:53.824Z,84.80
2023-04-18T07:06:23.197Z,84.62
2023-04-18T07:08:52.253Z,84.44
2023-04-18T07:11:21.598Z,84.78
2023-04-18T07:13:49.479Z,84.82
2023-04-18T07:16:16.816Z,84.67
2023-04-18T07:18:44.329Z,84.62
2023-04-18T07:21:11.647Z,84.76
2023-04-18T07:23:40.591Z,85.01
2023-04-18T07:26:09.540Z,85.54
2023-04-18T07:28:37.012Z,85.31
2023-04-18T07:31:04.685Z,85.28
2023-04-18T07:33:33.946Z,85.13
2023-04-18T07:36:01.902Z,85.26
2023-04-18T07:38:29.489Z,86.04
2023-04-18T07:40:59.721Z,86.93
2023-04-18T07:43:27.292Z,85.82
2023-04-18T07:45:56.815Z,86.29
2023-04-18T07:48:29.502Z,86.55
2023-04-18T07:51:04.149Z,86.62
2023-04-18T07:53:31.553Z,86.44
2023-04-18T07:56:00.268Z,85.56
2023-04-18T07:58:28.691Z,85.99
2023-04-18T08:00:56.860Z,85.71
2023-04-18T08:03:24.599Z,85.60
2023-04-18T08:05:52.313Z,85.67
2023-04-18T08:08:19.923Z,85.59
2023-04-18T08:10:47.348Z,85.32
2023-04-18T08:13:16.129Z,84.57
2023-04-18T08:15:43.407Z,85.06
2023-04-18T08:18:10.664Z,84.24
2023-04-18T08:20:38.500Z,84.28
2023-04-18T08:23:09.487Z,84.75
2023-04-18T08:25:37.703Z,83.33
2023-04-18T08:28:05.297Z,84.07
2023-04-18T08:30:34.401Z,84.45
2023-04-18T08:33:02.003Z,83.70
2023-04-18T08:35:29.344Z,84.30
2023-04-18T08:37:56.879Z,84.09
2023-04-18T08:40:24.665Z,85.18
2023-04-18T08:42:54.209Z,84.51
2023-04-18T08:45:24.421Z,84.46
2023-04-18T08:47:53.527Z,84.75
2023-04-18T08:50:25.105Z,85.05
2023-04-18T08:52:55.357Z,84.26
2023-04-18T08:55:22.742Z,84.43
2023-04-18T08:57:54.168Z,84.32
2023-04-18T09:00:22.710Z,84.09
2023-04-18T09:02:55.173Z,84.00
2023-04-18T09:05:26.997Z,83.17
2023-04-18T09:07:56.360Z,82.71
2023-04-18T09:10:29.854Z,83.07
2023-04-18T09:12:58.720Z,82.63
2023-04-18T09:15:28.498Z,82.63
2023-04-18T09:17:58.051Z,82.56
2023-04-18T09:20:38.045Z,82.46
2023-04-18T09:23:10.784Z,82.57
2023-04-18T09:25:45.272Z,82.68
2023-04-18T09:28:23.439Z,82.25
2023-04-18T09:30:52.591Z,82.29
2023-04-18T09:34:10.324Z,81.48
2023-04-18T09:36:39.240Z,81.39
2023-04-18T09:39:09.252Z,81.18
2023-04-18T09:41:42.808Z,81.23
2023-04-18T09:44:17.310Z,81.41
2023-04-18T09:46:47.542Z,81.61
2023-04-18T09:49:18.090Z,81.36
2023-04-18T09:51:51.190Z,81.41
2023-04-18T09:54:20.087Z,81.89
2023-04-18T09:56:50.723Z,82.17
2023-04-18T09:59:34.649Z,82.23
2023-04-18T10:02:08.241Z,82.08
2023-04-18T10:04:36.204Z,81.90
2023-04-18T10:07:05.802Z,81.31
2023-04-18T10:09:34.682Z,81.16
2023-04-18T10:12:02.826Z,81.43
2023-04-18T10:14:33.080Z,81.47
2023-04-18T10:17:01.238Z,80.96
2023-04-18T10:19:32.289Z,81.32
2023-04-18T10:22:03.809Z,81.13
2023-04-18T10:24:56.335Z,80.22
2023-04-18T10:27:59.870Z,80.78
2023-04-18T10:30:51.183Z,79.76
2023-04-18T10:33:30.954Z,80.03
2023-04-18T10:36:02.394Z,79.90
2023-04-18T10:38:29.831Z,79.23
2023-04-18T10:41:27.795Z,79.47
2023-04-18T10:44:14.901Z,79.51
2023-04-18T10:46:44.189Z,80.01
2023-04-18T10:49:16.938Z,79.71
2023-04-18T10:51:45.359Z,79.03
2023-04-18T10:54:17.979Z,79.62
2023-04-18T10:56:53.921Z,79.38
2023-04-18T10:59:23.685Z,79.22
2023-04-18T11:01:55.530Z,79.37
2023-04-18T11:04:24.093Z,78.69
2023-04-18T11:06:57.372Z,78.39
2023-04-18T11:09:25.742Z,78.35
2023-04-18T11:12:10.672Z,77.85
2023-04-18T11:14:41.633Z,78.03
2023-04-18T11:17:19.456Z,78.22
2023-04-18T11:19:47.354Z,78.13
2023-04-18T11:22:18.542Z,78.31
2023-04-18T11:24:48.851Z,78.88
2023-04-18T11:29:59.665Z,82.03
2023-04-18T11:32:27.215Z,78.42
2023-04-18T11:34:55.560Z,77.78
2023-04-18T11:37:28.849Z,77.61
2023-04-18T11:39:56.334Z,76.55
2023-04-18T11:42:28.792Z,76.88
2023-04-18T11:44:56.186Z,75.98
2023-04-18T11:47:25.121Z,75.75
2023-04-18T11:50:02.518Z,76.99
2023-04-18T11:52:31.798Z,78.84
2023-04-18T11:55:14.782Z,79.47
2023-04-18T11:57:42.287Z,80.31
2023-04-18T12:00:12.502Z,81.05
2023-04-18T12:02:43.284Z,80.73
2023-04-18T12:05:15.000Z,79.86
2023-04-18T12:07:45.978Z,79.36
2023-04-18T12:10:28.071Z,79.98
2023-04-18T12:12:58.770Z,80.32
2023-04-18T12:15:28.289Z,79.84
2023-04-18T12:17:59.538Z,78.63
2023-04-18T12:20:36.664Z,78.16
2023-04-18T12:23:04.111Z,79.06
2023-04-18T12:25:32.057Z,79.28
2023-04-18T12:28:01.432Z,78.60
2023-04-18T12:30:30.305Z,79.08
2023-04-18T12:32:58.971Z,77.75
2023-04-18T12:35:26.791Z,78.36
2023-04-18T12:37:57.168Z,78.18
2023-04-18T12:40:26.419Z,76.29
2023-04-18T12:42:54.775Z,76.10
2023-04-18T12:45:22.950Z,75.86
2023-04-18T12:47:51.695Z,76.24
2023-04-18T12:50:20.239Z,76.65
2023-04-18T12:52:47.986Z,77.57
2023-04-18T12:55:16.574Z,77.19
2023-04-18T12:57:43.937Z,76.74
2023-04-18T13:00:13.394Z,76.86
2023-04-18T13:02:42.552Z,77.29
2023-04-18T13:05:11.952Z,76.78
2023-04-18T13:07:40.802Z,76.52
2023-04-18T13:10:09.673Z,76.27
2023-04-18T13:12:39.047Z,76.99
2023-04-18T13:15:07.807Z,75.35
2023-04-18T13:17:38.517Z,75.03
2023-04-18T13:20:09.225Z,75.35
2023-04-18T13:22:36.810Z,75.71
2023-04-18T13:25:04.626Z,74.63
2023-04-18T13:27:31.897Z,75.34
2023-04-18T13:30:01.270Z,74.82
2023-04-18T13:32:28.704Z,74.39
2023-04-18T13:34:56.510Z,76.02
2023-04-18T13:37:23.966Z,75.88
2023-04-18T13:39:51.155Z,74.44
2023-04-18T13:42:19.595Z,75.02
2023-04-18T13:44:47.713Z,74.98
2023-04-18T13:47:17.226Z,75.67
2023-04-18T13:49:44.691Z,75.87
2023-04-18T13:52:11.883Z,76.18
2023-04-18T13:54:39.235Z,76.56
2023-04-18T13:57:11.625Z,76.04
2023-04-18T13:59:40.737Z,75.87
2023-04-18T14:02:11.138Z,76.21
2023-04-18T14:04:40.044Z,76.31
2023-04-18T14:07:08.138Z,76.74
2023-04-18T14:09:35.512Z,76.79
2023-04-18T14:12:03.116Z,76.30
2023-04-18T14:14:30.501Z,76.59
2023-04-18T14:16:57.899Z,76.89
2023-04-18T14:19:25.368Z,75.84
2023-04-18T14:21:54.724Z,76.21
2023-04-18T14:24:22.310Z,75.04
2023-04-18T14:26:49.758Z,75.64
2023-04-18T14:29:17.263Z,76.60
2023-04-18T14:31:44.903Z,76.03
2023-04-18T14:34:14.190Z,76.47
2023-04-18T14:36:41.502Z,76.78
2023-04-18T14:39:10.442Z,76.32
2023-04-18T14:41:38.122Z,75.65
2023-04-18T14:44:05.884Z,75.58
2023-04-18T14:46:33.498Z,76.48
2023-04-18T14:49:01.252Z,76.21
2023-04-18T14:51:28.930Z,76.61
2023-04-18T14:53:56.251Z,76.97
2023-04-18T14:56:25.036Z,76.89
2023-04-18T14:58:52.253Z,77.31
2023-04-18T15:01:19.546Z,77.42
2023-04-18T15:03:47.088Z,77.95
2023-04-18T15:06:14.907Z,78.12
2023-04-18T15:08:50.035Z,78.68
2023-04-18T15:11:17.913Z,78.97
2023-04-18T15:13:47.728Z,78.69
2023-04-18T15:16:14.985Z,79.78
2023-04-18T15:18:43.639Z,79.98
2023-04-18T15:21:11.231Z,80.32
2023-04-18T15:23:38.458Z,80.77
2023-04-18T15:26:06.243Z,80.93
2023-04-18T15:28:33.557Z,80.78
2023-04-18T15:31:02.311Z,80.91
2023-04-18T15:33:29.608Z,80.89
2023-04-18T15:35:56.788Z,80.70
2023-04-18T15:38:24.122Z,80.91
2023-04-18T15:40:51.841Z,80.76
2023-04-18T15:43:19.129Z,80.88
2023-04-18T15:45:47.062Z,81.08
2023-04-18T15:48:16.024Z,81.08
2023-04-18T15:50:43.308Z,80.96
2023-04-18T15:53:10.595Z,80.98
2023-04-18T15:55:37.899Z,81.01
2023-04-18T15:58:06.671Z,81.15
2023-04-18T16:00:34.092Z,81.42
2023-04-18T16:03:01.685Z,81.58
2023-04-18T16:05:30.950Z,81.88
2023-04-18T16:07:59.557Z,82.22
2023-04-18T16:10:27.206Z,82.16
2023-04-18T16:12:54.398Z,82.35
2023-04-18T16:15:21.657Z,82.39
2023-04-18T16:17:48.941Z,82.29
2023-04-18T16:20:16.269Z,82.08
2023-04-18T16:22:44.879Z,82.17
2023-04-18T16:25:12.116Z,81.95
2023-04-18T16:27:39.272Z,81.92
2023-04-18T16:30:08.006Z,81.97
2023-04-18T16:32:35.545Z,82.71
2023-04-18T16:35:06.375Z,83.11
2023-04-18T16:37:33.948Z,83.54
2023-04-18T16:40:05.296Z,84.09
2023-04-18T16:42:32.877Z,84.39
2023-04-18T16:45:01.960Z,84.83
2023-04-18T16:47:30.714Z,84.84
2023-04-18T16:49:57.981Z,85.22
2023-04-18T16:52:25.485Z,85.57
2023-04-18T16:54:52.954Z,85.64
2023-04-18T16:57:21.593Z,85.56
2023-04-18T16:59:48.858Z,85.49
2023-04-18T17:02:16.388Z,85.32
2023-04-18T17:04:43.824Z,85.05
2023-04-18T17:07:11.399Z,84.69
2023-04-18T17:09:38.972Z,84.21
2023-04-18T17:12:06.526Z,84.15
2023-04-18T17:14:37.215Z,84.51
2023-04-18T17:17:04.447Z,85.07
2023-04-18T17:19:31.867Z,85.58
2023-04-18T17:21:59.300Z,85.34
2023-04-18T17:24:27.024Z,85.67
2023-04-18T17:26:56.760Z,85.53
2023-04-18T17:29:24.706Z,85.50
2023-04-18T17:31:55.220Z,84.09
2023-04-18T17:34:22.919Z,84.99
2023-04-18T17:36:50.641Z,85.03
2023-04-18T17:39:17.848Z,85.78
2023-04-18T17:41:45.856Z,86.93
2023-04-18T17:44:13.165Z,86.88
2023-04-18T17:46:41.293Z,87.72
2023-04-18T17:49:11.415Z,87.38
2023-04-18T17:51:38.762Z,87.80
2023-04-18T17:54:08.235Z,87.86
2023-04-18T17:56:35.835Z,88.19
2023-04-18T17:59:03.668Z,88.02
2023-04-18T18:01:31.398Z,87.71
2023-04-18T18:03:59.315Z,88.12
2023-04-18T18:06:28.433Z,88.34
2023-04-18T18:08:56.087Z,87.97
2023-04-18T18:11:23.822Z,88.17
2023-04-18T18:13:54.674Z,88.44
2023-04-18T18:16:24.036Z,87.71
2023-04-18T18:18:51.529Z,87.49
2023-04-18T18:21:19.183Z,87.72
2023-04-18T18:23:48.558Z,87.62
2023-04-18T18:26:15.872Z,87.89
2023-04-18T18:28:43.091Z,87.51
2023-04-18T18:31:11.115Z,87.74
2023-04-18T18:33:38.769Z,87.94
2023-04-18T18:36:07.433Z,88.60
2023-04-18T18:38:35.073Z,88.82
2023-04-18T18:41:04.954Z,89.19
2023-04-18T18:43:32.438Z,89.45
2023-04-18T18:45:59.810Z,89.43
2023-04-18T18:48:27.917Z,89.66
2023-04-18T18:50:56.737Z,90.09
2023-04-18T18:53:24.390Z,90.13
2023-04-18T18:55:53.070Z,90.44
2023-04-18T18:58:21.982Z,90.63
2023-04-18T19:00:51.362Z,91.48
2023-04-18T19:03:19.436Z,91.42
2023-04-18T19:05:47.683Z,91.14
2023-04-18T19:08:15.610Z,91.65
2023-04-18T19:10:43.292Z,91.36
2023-04-18T19:13:11.110Z,91.09
2023-04-18T19:15:40.127Z,91.45
2023-04-18T19:18:07.896Z,91.34
2023-04-18T19:20:35.432Z,91.08
2023-04-18T19:23:04.938Z,91.61
2023-04-18T19:25:32.362Z,91.54
2023-04-18T19:27:59.953Z,91.70
2023-04-18T19:30:27.461Z,91.55
2023-04-18T19:32:56.143Z,91.97
2023-04-18T19:35:23.918Z,91.25
2023-04-18T19:37:51.600Z,91.40
2023-04-18T19:40:19.263Z,91.68
2023-04-18T19:42:46.847Z,91.64
2023-04-18T19:45:15.252Z,91.96
2023-04-18T19:47:44.592Z,92.54
2023-04-18T19:50:13.832Z,91.76
2023-04-18T19:52:41.828Z,91.85
2023-04-18T19:55:10.361Z,91.72
2023-04-18T19:57:41.583Z,91.94
2023-04-18T20:00:11.406Z,92.05
2023-04-18T20:02:39.600Z,91.65
2023-04-18T20:05:09.188Z,91.76
2023-04-18T20:07:38.422Z,91.81
2023-04-18T20:10:09.038Z,91.35
2023-04-18T20:12:36.815Z,91.91
2023-04-18T20:15:05.913Z,91.58
2023-04-18T20:17:34.829Z,91.70
2023-04-18T20:20:02.835Z,92.11
2023-04-18T20:22:32.633Z,91.27
2023-04-18T20:25:01.846Z,91.41
2023-04-18T20:27:29.362Z,91.41
2023-04-18T20:29:57.433Z,91.34
2023-04-18T20:32:25.068Z,91.85
2023-04-18T20:34:52.899Z,91.78
2023-04-18T20:37:21.671Z,91.77
2023-04-18T20:39:49.524Z,91.41
2023-04-18T20:42:18.731Z,91.54
2023-04-18T20:44:47.019Z,91.59
2023-04-18T20:47:15.693Z,91.54
2023-04-18T20:49:43.502Z,91.59
2023-04-18T20:52:11.052Z,91.56
2023-04-18T20:54:38.588Z,91.83
2023-04-18T20:57:06.078Z,92.05
2023-04-18T20:59:34.992Z,91.96
2023-04-18T21:02:02.462Z,91.71
2023-04-18T21:04:30.110Z,91.45
2023-04-18T21:06:58.107Z,90.78
2023-04-18T21:09:25.537Z,90.78
2023-04-18T21:11:53.083Z,91.06
2023-04-18T21:14:20.948Z,90.98
2023-04-18T21:16:49.770Z,90.74
2023-04-18T21:19:17.244Z,90.57
2023-04-18T21:21:44.978Z,90.63
2023-04-18T21:24:12.387Z,90.58
2023-04-18T21:26:39.672Z,89.49
2023-04-18T21:29:06.987Z,90.54
2023-04-18T21:31:35.366Z,90.86
2023-04-18T21:34:05.263Z,90.04
2023-04-18T21:36:33.016Z,89.42
2023-04-18T21:39:01.330Z,89.93
2023-04-18T21:41:28.684Z,90.96
2023-04-18T21:43:56.196Z,91.46
2023-04-18T21:46:23.600Z,89.81
2023-04-18T21:48:51.299Z,90.48
2023-04-18T21:51:20.173Z,88.28
2023-04-18T21:53:47.628Z,88.33
2023-04-18T21:56:14.961Z,88.55
2023-04-18T21:58:42.408Z,89.39
2023-04-18T22:01:09.812Z,90.29
2023-04-18T22:03:37.735Z,90.19
2023-04-18T22:06:05.883Z,90.56
2023-04-18T22:08:34.969Z,90.50
2023-04-18T22:11:02.288Z,90.55
2023-04-18T22:13:33.165Z,90.34
2023-04-18T22:16:03.741Z,90.78
2023-04-18T22:18:33.800Z,90.49
2023-04-18T22:21:02.436Z,90.50
2023-04-18T22:23:30.905Z,90.48
2023-04-18T22:26:00.185Z,90.78
2023-04-18T22:28:30.895Z,90.29
2023-04-18T22:30:58.465Z,90.40
2023-04-18T22:33:25.864Z,90.59
2023-04-18T22:35:53.360Z,90.80
2023-04-18T22:38:21.017Z,90.50
2023-04-18T22:40:48.244Z,90.97
2023-04-18T22:43:23.021Z,91.11
2023-04-18T22:45:51.245Z,91.20
2023-04-18T22:48:18.841Z,91.02
2023-04-18T22:50:46.419Z,90.55
2023-04-18T22:53:15.174Z,90.99
2023-04-18T22:55:43.997Z,90.56
2023-04-18T22:58:11.770Z,91.58
2023-04-18T23:00:40.606Z,90.94
2023-04-18T23:03:08.140Z,91.74
2023-04-18T23:05:35.644Z,92.11
2023-04-18T23:08:03.260Z,91.65
2023-04-18T23:10:30.908Z,91.76
2023-04-18T23:12:58.710Z,92.38
2023-04-18T23:15:27.059Z,91.94
2023-04-18T23:17:56.170Z,91.51
2023-04-18T23:20:24.180Z,91.11
2023-04-18T23:22:51.992Z,91.45
2023-04-18T23:25:22.186Z,91.85
2023-04-18T23:27:49.657Z,92.20
2023-04-18T23:30:17.545Z,92.25
2023-04-18T23:32:44.723Z,92.67
2023-04-18T23:35:13.409Z,92.69
2023-04-18T23:37:42.249Z,91.69
2023-04-18T23:40:09.791Z,92.70
2023-04-18T23:42:37.272Z,91.17
2023-04-18T23:45:06.071Z,91.32
2023-04-18T23:47:33.539Z,90.73
2023-04-18T23:50:01.210Z,90.46
2023-04-18T23:52:30.086Z,90.44
2023-04-18T23:54:59.736Z,90.19
2023-04-18T23:57:27.059Z,90.72
2023-04-18T23:59:54.267Z,90.60
